EW2210 Bisignano IT current weather conditions

sailwx.info

Air temperature 17.2° C
Dewpoint 14.3° C

Last reported at 2020-Aug-07 00:04 UTC.
Time now 2020-Aug-07 00:38 UTC

Location: N 39°50' E 016°16'.
View on Google Maps.

See reports from other nearby stations

  
Tides and Currents Weather Stations Pressure Air Temp Water Temp Dewpoint Dewpoint Depression Visibility Wind Speed Wind Dir Waves Ship Positions
date/time (UTC)wind fromknots sea level pressurealtimeterstation pressurevisibilityair tempwater tempwave heightnotes
2020-Aug-07 00:04 17.2
2020-Aug-06 23:55 17.2
2020-Aug-06 23:46 17.8
2020-Aug-06 23:37 17.8
2020-Aug-06 23:28 17.8
2020-Aug-06 23:19 18.3
2020-Aug-06 23:10 18.3
2020-Aug-06 23:01 18.3
2020-Aug-06 22:52 208 0 gusting 2 18.3
2020-Aug-06 22:43 18.9
2020-Aug-06 22:34 182 1 gusting 3 18.3
2020-Aug-06 22:25 106 0 gusting 2 18.3
2020-Aug-06 22:16 132 1 gusting 3 18.3
2020-Aug-06 22:07 187 2 gusting 3 18.3
2020-Aug-06 21:58 197 2 gusting 3 18.3
2020-Aug-06 21:49 185 3 gusting 4 18.3
2020-Aug-06 21:40 182 2 gusting 3 18.3
2020-Aug-06 21:31 225 18.3
2020-Aug-06 21:22 214 18.3
2020-Aug-06 21:13 186 0 gusting 2 18.3
2020-Aug-06 21:04 193 3 gusting 4 18.3
2020-Aug-06 20:55 184 2 gusting 3 18.3
2020-Aug-06 20:46 168 0 gusting 3 18.3
2020-Aug-06 20:37 18.9
2020-Aug-06 20:28 18.9
2020-Aug-06 20:19 18.9
2020-Aug-06 20:10 18.9
2020-Aug-06 20:01 18.9
2020-Aug-06 19:52 18.9
2020-Aug-06 19:43 18.9
2020-Aug-06 19:34 19.4
2020-Aug-06 19:25 19.4
2020-Aug-06 19:16 001 0 gusting 1 19.4
2020-Aug-06 19:07 19.4
2020-Aug-06 18:58 20.0
2020-Aug-06 18:49 20.0
2020-Aug-06 18:40 20.0
2020-Aug-06 18:31 170 0 gusting 1 20.0
2020-Aug-06 18:22 168 20.0
2020-Aug-06 18:13 196 0 gusting 3 20.0
2020-Aug-06 18:04 200 2 gusting 4 20.0
2020-Aug-06 17:55 200 4 gusting 6 20.0
2020-Aug-06 17:46 195 4 gusting 6 20.0
2020-Aug-06 17:37 193 5 gusting 6 20.0
2020-Aug-06 17:28 202 5 gusting 6 20.0
2020-Aug-06 17:19 193 4 gusting 6 20.0
2020-Aug-06 17:10 193 5 gusting 6 20.0
2020-Aug-06 17:01 201 4 gusting 6 20.0
2020-Aug-06 16:52 190 4 gusting 6 20.0
2020-Aug-06 16:43 206 6 gusting 6 20.0
2020-Aug-06 16:34 195 5 gusting 6 20.0
2020-Aug-06 16:26 209 4 gusting 6 20.0
2020-Aug-06 16:16 206 4 gusting 5 20.0
2020-Aug-06 16:07 194 1 gusting 3 20.0
2020-Aug-06 15:58 20.6
2020-Aug-06 15:49 199 20.0
2020-Aug-06 15:40 199 1 gusting 2 20.0
2020-Aug-06 15:31 181 0 gusting 2 20.0
2020-Aug-06 15:22 184 0 gusting 2 20.0
2020-Aug-06 15:13 20.0
2020-Aug-06 15:04 343 1 gusting 3 20.0
2020-Aug-06 14:55 006 4 gusting 6 20.0
2020-Aug-06 14:46 015 6 gusting 9 20.0
2020-Aug-06 14:37 352 10 gusting 14 20.0
2020-Aug-06 14:28 003 12 gusting 14 20.6
2020-Aug-06 14:19 353 10 gusting 17 21.1
2020-Aug-06 14:10 355 9 gusting 14 22.2
2020-Aug-06 14:01 350 11 gusting 14 23.3
2020-Aug-06 13:52 354 13 gusting 17 23.9
2020-Aug-06 13:43 338 12 gusting 18 25.6
2020-Aug-06 13:34 006 7 gusting 9 26.7
2020-Aug-06 13:25 008 6 gusting 9 26.7
2020-Aug-06 13:16 352 5 gusting 8 27.2
2020-Aug-06 13:07 354 6 gusting 6 27.2
2020-Aug-06 12:58 356 6 gusting 10 28.3
2020-Aug-06 12:49 016 6 gusting 7 27.2
2020-Aug-06 12:40 005 3 gusting 6 28.3
2020-Aug-06 12:31 010 4 gusting 6 27.2
2020-Aug-06 12:22 018 5 gusting 7 28.3
2020-Aug-06 12:13 138 4 gusting 13 28.3
2020-Aug-06 12:04 214 5 gusting 8 28.3
2020-Aug-06 11:55 351 4 gusting 6 27.2
2020-Aug-06 11:46 350 5 gusting 6 27.2
2020-Aug-06 11:37 357 2 gusting 6 28.3
2020-Aug-06 11:29 012 6 gusting 9 27.2
2020-Aug-06 11:20 001 4 gusting 9 27.2
2020-Aug-06 11:10 014 3 gusting 5 27.2
2020-Aug-06 11:02 001 6 gusting 9 27.2
2020-Aug-06 10:52 009 6 gusting 9 27.2
2020-Aug-06 10:43 354 6 gusting 9 26.7
2020-Aug-06 10:34 354 6 gusting 9 26.7
2020-Aug-06 10:25 351 6 gusting 7 26.1
2020-Aug-06 10:16 354 6 gusting 9 26.1
2020-Aug-06 10:07 352 4 gusting 8 25.6
2020-Aug-06 09:58 358 4 gusting 6 25.6
2020-Aug-06 09:49 319 5 gusting 6 25.6
2020-Aug-06 09:40 196 3 gusting 5 25.6
2020-Aug-06 09:31 191 3 gusting 5 25.0
2020-Aug-06 09:22 238 1 gusting 3 25.0
2020-Aug-06 09:13 206 1 gusting 3 24.4
2020-Aug-06 09:04 220 0 gusting 2 23.9
2020-Aug-06 08:55 229 0 gusting 2 23.9
2020-Aug-06 08:46 198 2 gusting 4 23.3
2020-Aug-06 08:37 194 2 gusting 4 22.8
2020-Aug-06 08:28 202 2 gusting 4 22.2
2020-Aug-06 08:19 207 2 gusting 5 21.7
2020-Aug-06 08:10 203 2 gusting 4 21.7
2020-Aug-06 08:01 192 2 gusting 4 21.1
2020-Aug-06 07:52 195 2 gusting 4 20.6
2020-Aug-06 07:43 183 2 gusting 3 20.0
2020-Aug-06 07:34 205 1 gusting 3 20.0
2020-Aug-06 07:25 193 1 gusting 3 19.4
2020-Aug-06 07:16 174 0 gusting 3 18.9
2020-Aug-06 07:07 182 18.9
2020-Aug-06 06:58 196 18.3
2020-Aug-06 06:49 191 0 gusting 2 17.8
2020-Aug-06 06:40 17.8
2020-Aug-06 06:31 181 0 gusting 2 17.8
2020-Aug-06 06:22 176 0 gusting 2 17.2
2020-Aug-06 06:13 181 1 gusting 2 17.2
2020-Aug-06 06:04 181 16.7
2020-Aug-06 05:55 16.7
2020-Aug-06 05:46 314 16.7
2020-Aug-06 05:37 181 16.1
2020-Aug-06 05:28 206 16.1
2020-Aug-06 05:19 16.1
2020-Aug-06 05:10 16.1
2020-Aug-06 05:01 16.1
2020-Aug-06 04:52 16.1
2020-Aug-06 04:43 190 16.1
2020-Aug-06 04:34 201 0 gusting 1 15.6
2020-Aug-06 04:25 222 15.6
2020-Aug-06 04:16 270 15.6
2020-Aug-06 04:07 15.6
2020-Aug-06 03:58 135 15.6
2020-Aug-06 03:49 16.1
2020-Aug-06 03:40 201 16.1
2020-Aug-06 03:31 211 0 gusting 3 16.1
2020-Aug-06 03:22 16.1
2020-Aug-06 03:13 023 16.1
2020-Aug-06 03:04 046 16.1
2020-Aug-06 02:55 052 16.1
2020-Aug-06 02:46 16.1
2020-Aug-06 02:37 157 0 gusting 3 16.1
2020-Aug-06 02:28 16.1
2020-Aug-06 02:19 16.1
2020-Aug-06 02:10 106 16.1
2020-Aug-06 01:52 16.1
2020-Aug-06 01:43 185 1 gusting 2 16.1
2020-Aug-06 01:34 194 0 gusting 2 16.1
2020-Aug-06 01:25 185 1 gusting 2 16.1
2020-Aug-06 01:16 16.1
2020-Aug-06 01:07 16.1
2020-Aug-06 00:58 16.7
2020-Aug-06 00:49 16.7
2020-Aug-06 00:40 17.2
2020-Aug-06 00:31 17.2
2020-Aug-06 00:22 040 17.2
2020-Aug-06 00:13 17.2
2020-Aug-06 00:04 17.2
2020-Aug-05 23:55 17.2
2020-Aug-05 23:46 17.2
2020-Aug-05 23:37 17.2
2020-Aug-05 23:28 17.2
2020-Aug-05 23:19 17.8
2020-Aug-05 23:10 17.2
2020-Aug-05 23:01 17.8
2020-Aug-05 22:52 17.8
2020-Aug-05 22:43 17.8
2020-Aug-05 22:34 17.8
2020-Aug-05 22:25 17.8
2020-Aug-05 22:16 197 1 gusting 3 17.8
2020-Aug-05 22:07 225 17.8
2020-Aug-05 21:58 17.8
2020-Aug-05 21:49 17.2
2020-Aug-05 21:40 17.2
2020-Aug-05 21:31 17.2
2020-Aug-05 21:22 17.2
2020-Aug-05 21:13 17.2
2020-Aug-05 21:04 17.8
2020-Aug-05 20:55 17.8
2020-Aug-05 20:46 17.8
2020-Aug-05 20:37 17.8
2020-Aug-05 20:28 17.8
2020-Aug-05 20:19 17.8
2020-Aug-05 20:10 181 17.8
2020-Aug-05 20:01 17.8
2020-Aug-05 19:52 17.8
2020-Aug-05 19:43 17.8
2020-Aug-05 19:34 17.8
2020-Aug-05 19:25 17.8
2020-Aug-05 19:16 181 17.8
2020-Aug-05 19:07 181 2 gusting 3 17.8
2020-Aug-05 18:58 187 0 gusting 2 18.3
2020-Aug-05 18:49 18.3
2020-Aug-05 18:40 18.9
2020-Aug-05 18:31 188 0 gusting 2 18.9
2020-Aug-05 18:22 181 18.9
2020-Aug-05 18:13 143 0 gusting 2 18.9
2020-Aug-05 18:04 194 2 gusting 5 18.9
2020-Aug-05 17:55 183 5 gusting 7 19.4
2020-Aug-05 17:46 355 2 gusting 6 20.0
2020-Aug-05 17:37 198 4 gusting 6 20.0
2020-Aug-05 17:28 233 0 gusting 4 20.6
2020-Aug-05 17:19 202 2 gusting 5 20.6
2020-Aug-05 17:10 249 0 gusting 1 20.6
2020-Aug-05 17:01 269 1 gusting 3 21.1
2020-Aug-05 16:52 047 0 gusting 1 21.7
2020-Aug-05 16:43 322 1 gusting 3 21.7
2020-Aug-05 16:34 220 3 gusting 6 22.8
2020-Aug-05 16:25 207 6 gusting 10 23.3
2020-Aug-05 16:16 208 6 gusting 9 24.4
2020-Aug-05 16:07 217 9 gusting 13 24.4
2020-Aug-05 15:58 216 9 gusting 13 24.4
2020-Aug-05 15:49 208 7 gusting 9 25.0
2020-Aug-05 15:40 205 7 gusting 11 25.6
2020-Aug-05 15:31 200 7 gusting 11 25.6
2020-Aug-05 15:22 202 10 gusting 15 25.6
2020-Aug-05 15:13 191 13 gusting 18 25.6
2020-Aug-05 15:04 197 12 gusting 15 25.6
2020-Aug-05 14:55 195 13 gusting 19 25.0
2020-Aug-05 14:46 198 16 gusting 19 25.0
2020-Aug-05 14:37 202 11 gusting 16 25.6
2020-Aug-05 14:28 203 10 gusting 13 25.6
2020-Aug-05 14:19 194 12 gusting 17 25.6
2020-Aug-05 14:10 211 9 gusting 13 26.1
2020-Aug-05 14:01 197 10 gusting 13 26.7
2020-Aug-05 13:52 201 8 gusting 12 27.2
2020-Aug-05 13:43 206 6 gusting 9 27.2
2020-Aug-05 13:34 205 6 gusting 9 28.3
2020-Aug-05 13:25 202 6 gusting 9 28.3
2020-Aug-05 13:16 217 7 gusting 13 27.2
2020-Aug-05 13:07 230 6 gusting 11 27.2
2020-Aug-05 12:58 201 5 gusting 9 27.2
2020-Aug-05 12:49 206 6 gusting 6 28.3
2020-Aug-05 12:40 194 6 gusting 8 27.2
2020-Aug-05 12:22 210 3 gusting 6 28.3
2020-Aug-05 12:13 296 4 gusting 7 29.4
2020-Aug-05 12:04 235 4 gusting 7 29.4
2020-Aug-05 11:55 200 7 gusting 11 28.3
2020-Aug-05 11:46 202 8 gusting 13 27.2
2020-Aug-05 11:37 211 7 gusting 13 28.3
2020-Aug-05 11:28 196 7 gusting 11 28.9
2020-Aug-05 11:10 204 9 gusting 14 28.3
2020-Aug-05 11:01 199 7 gusting 9 28.3
2020-Aug-05 10:52 199 8 gusting 12 28.3
2020-Aug-05 10:43 205 3 gusting 12 28.9
2020-Aug-05 10:34 204 4 gusting 6 27.2
2020-Aug-05 10:25 011 5 gusting 8 28.3
2020-Aug-05 10:16 309 5 gusting 8 28.3
2020-Aug-05 10:07 203 6 gusting 9 28.3
2020-Aug-05 09:58 221 5 gusting 9 28.3
2020-Aug-05 09:49 206 5 gusting 7 27.2
2020-Aug-05 09:40 189 6 gusting 11 27.2
2020-Aug-05 09:31 218 6 gusting 11 27.2
2020-Aug-05 09:22 199 7 gusting 10 27.2
2020-Aug-05 09:13 211 7 gusting 13 26.1
2020-Aug-05 09:04 205 10 gusting 13 26.7
2020-Aug-05 08:55 206 8 gusting 13 27.2
2020-Aug-05 08:46 193 10 gusting 15 26.7
2020-Aug-05 08:37 196 9 gusting 13 26.7
2020-Aug-05 08:28 207 7 gusting 9 26.1
2020-Aug-05 08:19 206 8 gusting 9 25.6
2020-Aug-05 08:10 190 7 gusting 12 25.6
2020-Aug-05 08:01 191 6 gusting 10 25.0
2020-Aug-05 07:52 199 4 gusting 6 25.0
2020-Aug-05 07:43 193 5 gusting 6 24.4
2020-Aug-05 07:34 210 5 gusting 6 23.9
2020-Aug-05 07:25 186 3 gusting 6 23.3
2020-Aug-05 07:16 242 1 gusting 3 23.3
2020-Aug-05 07:07 228 2 gusting 3 22.8
2020-Aug-05 06:58 182 1 gusting 5 22.2
2020-Aug-05 06:49 159 0 gusting 2 22.2
2020-Aug-05 06:40 21.7
2020-Aug-05 06:31 115 0 gusting 2 21.1
2020-Aug-05 06:22 052 0 gusting 2 20.6
2020-Aug-05 06:13 101 1 gusting 2 20.6
2020-Aug-05 06:04 044 2 gusting 5 20.0
2020-Aug-05 05:55 357 8 gusting 12 20.0
2020-Aug-05 05:46 002 6 gusting 12 20.0
2020-Aug-05 05:37 158 20.6
2020-Aug-05 05:28 207 2 gusting 3 20.6
2020-Aug-05 05:19 210 1 gusting 3 20.0
2020-Aug-05 05:10 185 1 gusting 4 20.0
2020-Aug-05 05:01 094 20.0
2020-Aug-05 04:52 164 0 gusting 2 20.0
2020-Aug-05 04:43 145 1 gusting 2 20.0
2020-Aug-05 04:34 169 0 gusting 3 20.0
2020-Aug-05 04:25 190 3 gusting 6 20.0
2020-Aug-05 04:16 192 6 gusting 11 20.6
2020-Aug-05 04:07 184 2 gusting 8 21.1
2020-Aug-05 03:58 019 0 gusting 2 21.7
2020-Aug-05 03:49 161 0 gusting 2 21.7
2020-Aug-05 03:40 21.7
2020-Aug-05 03:31 181 21.7
2020-Aug-05 03:22 181 21.7
2020-Aug-05 03:13 216 0 gusting 3 21.7
2020-Aug-05 03:04 205 0 gusting 3 21.7
2020-Aug-05 02:55 167 2 gusting 5 21.7
2020-Aug-05 02:46 101 21.7
2020-Aug-05 02:37 188 2 gusting 3 21.7
2020-Aug-05 02:28 200 3 gusting 6 21.7
2020-Aug-05 02:19 196 21.7
2020-Aug-05 02:10 190 2 gusting 3 21.7
2020-Aug-05 02:01 193 2 gusting 4 21.7
2020-Aug-05 01:52 184 2 gusting 6 21.7
2020-Aug-05 01:43 197 4 gusting 6 21.7
2020-Aug-05 01:34 205 3 gusting 6 21.7
2020-Aug-05 01:25 198 1 gusting 5 21.7
2020-Aug-05 01:16 197 3 gusting 5 21.7
2020-Aug-05 01:07 192 4 gusting 5 21.7
2020-Aug-05 00:58 192 1 gusting 3 21.7
2020-Aug-05 00:49 191 1 gusting 3 21.7
2020-Aug-05 00:40 162 21.7
2020-Aug-05 00:31 182 2 gusting 3 21.7
2020-Aug-05 00:22 191 0 gusting 2 22.2
2020-Aug-05 00:13 185 1 gusting 3 22.2
2020-Aug-05 00:04 198 1 gusting 4 23.3